createdAt,value
2024-04-21T00:00:21.252Z,3.00
2024-04-21T00:05:23.250Z,3.00
2024-04-21T00:10:25.265Z,3.00
2024-04-21T00:15:27.322Z,3.00
2024-04-21T00:20:29.326Z,3.00
2024-04-21T00:25:31.376Z,3.00
2024-04-21T00:30:34.310Z,3.00
2024-04-21T00:35:36.344Z,3.10
2024-04-21T00:40:38.394Z,3.10
2024-04-21T00:45:47.153Z,3.00
2024-04-21T00:50:55.060Z,3.00
2024-04-21T00:55:58.803Z,3.10
2024-04-21T01:01:01.875Z,3.10
2024-04-21T01:06:04.180Z,3.20
2024-04-21T01:11:16.559Z,3.20
2024-04-21T01:16:19.164Z,3.20
2024-04-21T01:21:21.311Z,3.30
2024-04-21T01:26:23.385Z,3.20
2024-04-21T01:31:27.615Z,3.30
2024-04-21T01:36:29.649Z,3.30
2024-04-21T01:41:31.656Z,3.30
2024-04-21T01:46:33.700Z,3.30
2024-04-21T01:51:35.795Z,3.30
2024-04-21T01:56:37.843Z,3.30
2024-04-21T02:01:40.047Z,3.30
2024-04-21T02:06:42.135Z,3.40
2024-04-21T02:11:44.209Z,3.40
2024-04-21T02:16:46.243Z,3.50
2024-04-21T02:21:48.348Z,3.50
2024-04-21T02:26:50.464Z,3.50
2024-04-21T02:31:52.498Z,3.50
2024-04-21T02:36:54.607Z,3.50
2024-04-21T02:41:57.027Z,3.50
2024-04-21T02:46:59.032Z,3.60
2024-04-21T02:52:01.204Z,3.60
2024-04-21T02:57:03.346Z,3.60
2024-04-21T03:02:05.368Z,3.60
2024-04-21T03:07:07.837Z,3.60
2024-04-21T03:12:10.593Z,3.60
2024-04-21T03:17:12.771Z,3.60
2024-04-21T03:22:15.050Z,3.70
2024-04-21T03:27:17.064Z,3.70
2024-04-21T03:32:19.234Z,3.70
2024-04-21T03:37:22.409Z,3.70
2024-04-21T03:42:24.439Z,3.70
2024-04-21T03:47:26.545Z,3.60
2024-04-21T03:52:28.664Z,3.60
2024-04-21T03:57:32.244Z,3.60
2024-04-21T04:02:34.263Z,3.60
2024-04-21T04:07:36.255Z,3.60
2024-04-21T04:12:46.207Z,3.60
2024-04-21T04:17:49.867Z,3.60
2024-04-21T04:22:52.197Z,3.60
2024-04-21T04:27:54.452Z,3.60
2024-04-21T04:32:56.764Z,3.60
2024-04-21T04:37:58.995Z,3.60
2024-04-21T04:43:01.094Z,3.60
2024-04-21T04:48:03.223Z,3.60
2024-04-21T04:53:05.307Z,3.70
2024-04-21T04:58:08.681Z,3.70
2024-04-21T05:03:10.776Z,3.70
2024-04-21T05:08:12.937Z,3.80
2024-04-21T05:13:15.093Z,3.80
2024-04-21T05:18:17.347Z,3.80
2024-04-21T05:23:19.460Z,3.80
2024-04-21T05:28:36.197Z,3.80
2024-04-21T05:33:43.367Z,3.80
2024-04-21T05:38:45.466Z,3.80
2024-04-21T05:43:47.942Z,3.90
2024-04-21T05:48:50.065Z,3.80
2024-04-21T05:53:53.554Z,3.80
2024-04-21T05:58:56.599Z,3.90
2024-04-21T06:03:58.742Z,4.00
2024-04-21T06:09:00.914Z,3.90
2024-04-21T06:14:09.582Z,4.00
2024-04-21T06:19:11.669Z,4.00
2024-04-21T06:24:13.708Z,4.10
2024-04-21T06:29:15.915Z,4.00
2024-04-21T06:34:17.992Z,4.10
2024-04-21T06:39:20.040Z,4.10
2024-04-21T06:44:22.511Z,4.10
2024-04-21T06:49:24.652Z,4.10
2024-04-21T06:54:26.790Z,4.20
2024-04-21T06:59:28.856Z,4.20
2024-04-21T07:04:30.939Z,4.30
2024-04-21T07:09:33.782Z,4.30
2024-04-21T07:14:35.875Z,4.30
2024-04-21T07:19:38.022Z,4.40
2024-04-21T07:24:40.179Z,4.50
2024-04-21T07:29:42.266Z,4.60
2024-04-21T07:34:44.687Z,4.60
2024-04-21T07:39:46.679Z,4.70
2024-04-21T07:44:49.005Z,4.70
2024-04-21T07:49:52.374Z,4.80
2024-04-21T07:54:54.429Z,5.00
2024-04-21T07:59:56.519Z,5.10
2024-04-21T08:04:58.864Z,5.10
2024-04-21T08:10:01.100Z,5.10
2024-04-21T08:15:06.692Z,5.20
2024-04-21T08:20:09.365Z,5.30
2024-04-21T08:25:12.576Z,5.30
2024-04-21T08:30:14.672Z,5.30
2024-04-21T08:35:16.869Z,5.40
2024-04-21T08:40:19.089Z,5.60
2024-04-21T08:45:22.247Z,5.70
2024-04-21T08:50:27.300Z,5.80
2024-04-21T08:55:31.087Z,5.80
2024-04-21T09:00:33.675Z,5.80
2024-04-21T09:05:36.415Z,5.80
2024-04-21T09:10:38.471Z,5.80
2024-04-21T09:15:42.582Z,5.90
2024-04-21T09:20:46.919Z,6.00
2024-04-21T09:25:48.958Z,5.90
2024-04-21T09:30:52.121Z,5.90
2024-04-21T09:35:59.183Z,5.90
2024-04-21T09:41:01.728Z,6.00
2024-04-21T09:46:05.758Z,6.10
2024-04-21T09:51:09.912Z,6.20
2024-04-21T09:56:27.322Z,6.30
2024-04-21T10:01:36.944Z,6.30
2024-04-21T10:06:39.433Z,6.50
2024-04-21T10:11:41.477Z,6.70
2024-04-21T10:16:43.920Z,6.80
2024-04-21T10:21:45.970Z,6.70
2024-04-21T10:26:48.011Z,6.60
2024-04-21T10:31:52.159Z,6.60
2024-04-21T10:36:56.015Z,6.80
2024-04-21T10:42:01.488Z,7.00
2024-04-21T10:47:03.535Z,7.00
2024-04-21T10:52:06.655Z,7.00
2024-04-21T10:57:09.993Z,7.00
2024-04-21T11:02:12.153Z,6.90
2024-04-21T11:07:14.219Z,6.60
2024-04-21T11:12:18.268Z,6.30
2024-04-21T11:17:20.741Z,5.80
2024-04-21T11:22:23.700Z,5.40
2024-04-21T11:27:25.919Z,5.30
2024-04-21T11:32:28.134Z,5.20
2024-04-21T11:37:30.416Z,5.00
2024-04-21T11:42:32.550Z,4.80
2024-04-21T11:47:34.655Z,4.80
2024-04-21T11:52:36.745Z,4.60
2024-04-21T11:57:39.688Z,4.40
2024-04-21T12:02:42.063Z,4.20
2024-04-21T12:07:44.381Z,3.90
2024-04-21T12:12:46.548Z,3.90
2024-04-21T12:17:48.663Z,3.90
2024-04-21T12:22:52.024Z,4.00
2024-04-21T12:27:54.182Z,4.00
2024-04-21T12:32:56.605Z,3.90
2024-04-21T12:38:00.824Z,3.90
2024-04-21T12:43:03.058Z,4.00
2024-04-21T12:48:05.764Z,3.90
2024-04-21T12:53:08.706Z,3.90
2024-04-21T12:58:10.889Z,3.90
2024-04-21T13:03:16.167Z,3.80
2024-04-21T13:08:18.207Z,3.90
2024-04-21T13:13:20.320Z,4.00
2024-04-21T13:18:22.399Z,4.10
2024-04-21T13:23:24.718Z,4.10
2024-04-21T13:28:32.952Z,4.10
2024-04-21T13:33:35.049Z,4.10
2024-04-21T13:38:37.400Z,4.20
2024-04-21T13:43:39.765Z,4.30
2024-04-21T13:48:41.816Z,4.30
2024-04-21T13:53:43.946Z,4.30
2024-04-21T13:58:47.166Z,4.40
2024-04-21T14:03:49.289Z,4.50
2024-04-21T14:08:51.343Z,4.60
2024-04-21T14:13:54.524Z,4.70
2024-04-21T14:18:58.625Z,4.70
2024-04-21T14:24:02.529Z,4.70
2024-04-21T14:29:04.958Z,4.80
2024-04-21T14:34:07.372Z,4.90
2024-04-21T14:39:09.514Z,5.00
2024-04-21T14:44:11.551Z,5.10
2024-04-21T14:49:13.980Z,5.20
2024-04-21T14:54:16.121Z,5.30
2024-04-21T14:59:19.304Z,5.40
2024-04-21T15:04:21.547Z,5.50
2024-04-21T15:09:26.312Z,5.60
2024-04-21T15:14:28.530Z,5.80
2024-04-21T15:19:30.551Z,5.90
2024-04-21T15:24:32.576Z,5.90
2024-04-21T15:29:34.758Z,6.00
2024-04-21T15:34:36.904Z,5.90
2024-04-21T15:39:38.919Z,5.90
2024-04-21T15:44:40.950Z,5.70
2024-04-21T15:49:45.599Z,5.70
2024-04-21T15:54:49.988Z,5.60
2024-04-21T15:59:52.005Z,5.50
2024-04-21T16:05:00.240Z,5.40
2024-04-21T16:10:04.134Z,5.40
2024-04-21T16:15:08.480Z,5.40
2024-04-21T16:20:11.135Z,5.30
2024-04-21T16:25:13.186Z,5.40
2024-04-21T16:30:15.354Z,5.40
2024-04-21T16:35:17.662Z,5.30
2024-04-21T16:40:20.033Z,5.20
2024-04-21T16:45:22.371Z,5.20
2024-04-21T16:50:24.852Z,5.30
2024-04-21T16:55:27.597Z,5.30
2024-04-21T17:00:30.066Z,5.20
2024-04-21T17:05:32.423Z,5.20
2024-04-21T17:10:35.763Z,5.20
2024-04-21T17:15:38.717Z,5.20
2024-04-21T17:20:40.832Z,5.20
2024-04-21T17:25:42.960Z,5.10
2024-04-21T17:30:45.317Z,4.90
2024-04-21T17:35:47.346Z,4.80
2024-04-21T17:40:51.417Z,4.60
2024-04-21T17:45:53.455Z,4.60
2024-04-21T17:50:55.468Z,4.60
2024-04-21T17:55:58.271Z,4.50
2024-04-21T18:01:00.530Z,4.50
2024-04-21T18:06:06.996Z,4.50
2024-04-21T18:11:09.296Z,4.50
2024-04-21T18:16:12.554Z,4.40
2024-04-21T18:21:15.356Z,4.40
2024-04-21T18:26:18.494Z,4.40
2024-04-21T18:31:20.512Z,4.40
2024-04-21T18:36:22.627Z,4.40
2024-04-21T18:41:24.655Z,4.30
2024-04-21T18:46:28.970Z,4.30
2024-04-21T18:51:35.225Z,4.30
2024-04-21T18:56:37.269Z,4.20
2024-04-21T19:01:40.134Z,4.20
2024-04-21T19:06:42.239Z,4.20
2024-04-21T19:11:46.903Z,4.30
2024-04-21T19:16:49.472Z,4.20
2024-04-21T19:21:51.815Z,4.20
2024-04-21T19:26:53.808Z,4.20
2024-04-21T19:31:55.901Z,4.20
2024-04-21T19:36:57.977Z,4.20
2024-04-21T19:41:59.982Z,4.20
2024-04-21T19:47:02.015Z,4.20
2024-04-21T19:52:05.627Z,4.20
2024-04-21T19:57:09.312Z,4.10
2024-04-21T20:02:12.311Z,4.00
2024-04-21T20:07:14.496Z,3.90
2024-04-21T20:12:16.565Z,3.90
2024-04-21T20:17:37.238Z,3.80
2024-04-21T20:22:39.508Z,3.80
2024-04-21T20:27:41.663Z,3.60
2024-04-21T20:32:44.212Z,3.60
2024-04-21T20:37:46.310Z,3.50
2024-04-21T20:42:48.364Z,3.50
2024-04-21T20:47:51.050Z,3.40
2024-04-21T20:52:54.096Z,3.30
2024-04-21T20:57:56.169Z,3.30
2024-04-21T21:02:58.246Z,3.30
2024-04-21T21:08:00.436Z,3.20
2024-04-21T21:13:03.312Z,3.20
2024-04-21T21:18:05.734Z,3.10
2024-04-21T21:23:07.842Z,3.10
2024-04-21T21:28:09.945Z,3.00
2024-04-21T21:33:12.065Z,3.10
2024-04-21T21:38:14.111Z,3.10
2024-04-21T21:43:16.129Z,3.10
2024-04-21T21:48:18.312Z,3.10
2024-04-21T21:53:20.554Z,3.20
2024-04-21T21:58:22.590Z,3.10
2024-04-21T22:03:24.822Z,3.10
2024-04-21T22:08:26.979Z,3.10
2024-04-21T22:13:29.087Z,3.20
2024-04-21T22:18:31.667Z,3.10
2024-04-21T22:23:33.773Z,3.10
2024-04-21T22:28:35.966Z,3.10
2024-04-21T22:33:38.120Z,3.10
2024-04-21T22:38:41.154Z,3.00
2024-04-21T22:43:43.236Z,2.90
2024-04-21T22:48:45.382Z,2.90
2024-04-21T22:53:47.520Z,2.90
2024-04-21T22:58:49.589Z,2.90
2024-04-21T23:03:51.880Z,2.90
2024-04-21T23:08:53.904Z,2.90
2024-04-21T23:13:55.944Z,2.90
2024-04-21T23:18:58.352Z,3.00
2024-04-21T23:24:00.396Z,2.90
2024-04-21T23:29:02.500Z,2.90
2024-04-21T23:34:04.675Z,3.00
2024-04-21T23:39:06.700Z,3.00
2024-04-21T23:44:08.810Z,3.00
2024-04-21T23:49:11.956Z,3.00
2024-04-21T23:54:13.983Z,3.00
2024-04-21T23:59:18.031Z,3.10
